Hlavní strana
METAR-TAF:

METAR-TAF

Letiště :

Kirkenes, Norsko

zeměpisná šířka: 69-44N, zeměpisná délka: 029-54E, výška: 9 m

Aktuální stav počasí

Zpráva byla vytvořena před 35 minutami, v 12:50 UTC
Jižní vítr 10 kt
Teplota -5°C
Vlhkost vzduchu 93%
Tlak 1005 hPa
Viditelnost 10 km a více
Polojasno ve výšce 1100 ft
Oblačno až skoro zataženo ve výšce 4800 ft

METAR: ENKR 251250Z 19010KT 9999 SCT011 BKN048 M05/M06 Q1005 RMK WIND 731FT 21021KT

Čas: 14:25 (13:25 UTC)

Předpověď počasí

Zpráva byla vytvořena před 2 hodinami a 25 minutami, v 11:00 UTC
Předpověď platná od 25 v 12 UTC do 25 v 21 UTC
Jižní vítr 12 kt
Viditelnost 10 km a více
Polojasno ve výšce 2000 ft
Oblačno až skoro zataženo ve výšce 4000 ft
Pravděpodobnost 30% :
Dočasný
od 25 v 12 UTC do 25 v 21 UTC
Oblačno až skoro zataženo ve výšce 1200 ft

TAF: ENKR 251100Z 2512/2521 18012KT 9999 SCT020 BKN040 PROB30 TEMPO 2512/2521 BKN012

Stav a předpovědi počasí z více než 4 000 letišť (zprávy METAR a TAF).

Červené a žluté tečky na mapě představují dostupné meteorologické stanice.

Když kurzor umístíte na tečku, zobrazí se název stanice.

Pak kliknutím zobrazíte stav a předpověď počasí.

Chcete-li změnit mapu, kliknutím na zelené tlačítko se znaménkem +mapu přiblížíte, kliknutím na zelené tlačítko se znaménkem – mapu oddálíte a kliknutím na zelené šipky přejdete na sousední mapy.


METAR-TAF: